Time;durP1;ratioP1;P1;durP2;ratioP2;P2;SDS_P1;SDS_P2;PMS_P1;PMS_P2;Temp;Humidity;BMP_temperature;BMP_pressure;BME280_temperature;BME280_humidity;BME280_pressure;Samples;Min_cycle;Max_cycle;Signal;HPM_P1;HPM_P2
2023/03/30 00:02:22;;;;;;;4.90;1.83;;;12.30;99.90;;;;;;5057233;28;20196;-79
2023/03/30 00:04:50;;;;;;;3.63;1.90;;;12.20;99.90;;;;;;5057932;28;20176;-78
2023/03/30 00:07:16;;;;;;;4.70;1.90;;;12.20;99.90;;;;;;5057692;28;20638;-79
2023/03/30 00:09:42;;;;;;;5.77;1.90;;;12.20;99.90;;;;;;5058942;28;20172;-79
2023/03/30 00:12:09;;;;;;;7.37;1.83;;;12.20;99.90;;;;;;5057406;28;20213;-79
2023/03/30 00:14:36;;;;;;;5.23;1.70;;;12.20;99.90;;;;;;5057200;28;20183;-79
2023/03/30 00:17:03;;;;;;;4.17;1.80;;;12.20;99.90;;;;;;5056839;28;20675;-78
2023/03/30 00:19:29;;;;;;;3.03;1.67;;;12.20;99.90;;;;;;5058806;28;20176;-79
2023/03/30 00:21:55;;;;;;;3.10;1.50;;;12.20;99.90;;;;;;5058982;28;20179;-79
2023/03/30 00:24:21;;;;;;;4.30;1.90;;;12.20;99.90;;;;;;5057419;28;20655;-79
2023/03/30 00:26:46;;;;;;;3.10;1.47;;;12.20;99.90;;;;;;5056874;28;20175;-79
2023/03/30 00:29:12;;;;;;;2.80;1.80;;;12.30;99.90;;;;;;5058453;28;20521;-79
2023/03/30 00:31:37;;;;;;;7.90;2.20;;;12.30;99.90;;;;;;5058217;28;20278;-79
2023/03/30 00:34:03;;;;;;;3.73;1.57;;;12.30;99.90;;;;;;5058124;28;20205;-79
2023/03/30 00:36:29;;;;;;;4.87;1.43;;;12.20;99.90;;;;;;5058523;28;20659;-79
2023/03/30 00:38:55;;;;;;;4.30;3.13;;;12.20;99.90;;;;;;5058487;28;20651;-79
2023/03/30 00:41:20;;;;;;;4.90;1.90;;;12.20;99.90;;;;;;5057829;28;20171;-78
2023/03/30 00:44:04;;;;;;;4.93;1.80;;;12.20;99.90;;;;;;5058404;28;20171;-79
2023/03/30 00:46:31;;;;;;;4.03;1.70;;;12.20;99.90;;;;;;5058423;28;20175;-78
2023/03/30 00:49:07;;;;;;;5.23;1.63;;;12.20;99.90;;;;;;5059028;28;20171;-78
2023/03/30 00:51:36;;;;;;;6.60;1.90;;;12.20;99.90;;;;;;5057249;28;20195;-79
2023/03/30 00:54:14;;;;;;;5.80;2.00;;;12.20;99.90;;;;;;5058867;28;20523;-79
2023/03/30 00:56:40;;;;;;;5.13;1.97;;;12.10;99.90;;;;;;5058470;28;20191;-79
2023/03/30 00:59:06;;;;;;;3.77;1.87;;;12.10;99.90;;;;;;5057858;28;20168;-79
2023/03/30 01:01:37;;;;;;;6.00;2.00;;;12.10;99.90;;;;;;5058207;28;20211;-78
2023/03/30 01:04:04;;;;;;;4.80;1.87;;;12.10;99.90;;;;;;5058459;28;20202;-78
2023/03/30 01:06:32;;;;;;;3.03;1.70;;;12.10;99.90;;;;;;5058562;28;20172;-79
2023/03/30 01:08:58;;;;;;;3.73;1.53;;;12.10;99.90;;;;;;5056503;28;20183;-79
2023/03/30 01:11:25;;;;;;;5.00;1.80;;;12.10;99.90;;;;;;5058165;28;20241;-79
2023/03/30 01:13:56;;;;;;;5.67;1.60;;;12.10;99.90;;;;;;5056885;28;20731;-78
2023/03/30 01:17:00;;;;;;;3.43;1.40;;;12.10;99.90;;;;;;5056464;28;20211;-79
2023/03/30 01:20:08;;;;;;;3.07;1.80;;;12.10;99.90;;;;;;5058229;28;20156;-78
2023/03/30 01:23:02;;;;;;;4.37;1.90;;;12.20;99.90;;;;;;5056773;28;20198;-79
2023/03/30 01:25:44;;;;;;;4.13;1.60;;;12.20;99.90;;;;;;5056721;28;20159;-79
2023/03/30 01:28:33;;;;;;;3.73;1.57;;;12.20;99.90;;;;;;5058334;28;20255;-79
2023/03/30 01:31:24;;;;;;;7.33;2.17;;;12.20;99.90;;;;;;5057653;28;20693;-79
2023/03/30 01:34:23;;;;;;;8.77;2.33;;;12.20;99.90;;;;;;5057849;28;20160;-78
2023/03/30 01:36:59;;;;;;;2.83;1.40;;;12.20;99.90;;;;;;5057685;28;20199;-77
2023/03/30 01:39:54;;;;;;;9.10;2.00;;;12.20;99.90;;;;;;5057098;28;20186;-78
2023/03/30 01:42:29;;;;;;;2.93;1.60;;;12.20;99.90;;;;;;5058866;28;20631;-79
2023/03/30 01:45:00;;;;;;;9.03;2.03;;;12.30;99.90;;;;;;5057431;28;20181;-79
2023/03/30 01:47:41;;;;;;;5.27;2.23;;;12.20;99.90;;;;;;5058483;28;20531;-79
2023/03/30 01:50:19;;;;;;;3.60;1.97;;;12.30;99.90;;;;;;5060660;28;20178;-79
2023/03/30 01:53:04;;;;;;;6.07;1.67;;;12.30;99.90;;;;;;5057857;28;20192;-78
2023/03/30 01:55:44;;;;;;;4.60;2.00;;;12.30;99.90;;;;;;5055446;28;20239;-79
2023/03/30 01:58:16;;;;;;;8.27;2.07;;;12.30;99.90;;;;;;5055695;28;20218;-79
2023/03/30 02:00:47;;;;;;;4.93;2.13;;;12.40;99.90;;;;;;5056412;28;20191;-79
2023/03/30 02:03:17;;;;;;;6.03;2.03;;;12.40;99.90;;;;;;5056734;28;20187;-79
2023/03/30 02:05:46;;;;;;;5.90;1.80;;;12.40;99.90;;;;;;5056447;28;20156;-79
2023/03/30 02:08:17;;;;;;;6.93;2.13;;;12.50;99.90;;;;;;5055833;28;20250;-79
2023/03/30 02:10:44;;;;;;;3.57;2.30;;;12.40;99.90;;;;;;5056097;28;20258;-79
2023/03/30 02:13:11;;;;;;;5.83;1.83;;;12.50;99.90;;;;;;5056534;28;20194;-79
2023/03/30 02:15:44;;;;;;;5.47;2.20;;;12.50;99.90;;;;;;5056665;28;20199;-79
2023/03/30 02:18:10;;;;;;;6.17;2.00;;;12.40;99.90;;;;;;5055611;28;20170;-79
2023/03/30 02:20:37;;;;;;;5.53;1.90;;;12.50;99.90;;;;;;5056620;28;20254;-79
2023/03/30 02:23:07;;;;;;;4.50;1.73;;;12.50;99.90;;;;;;5056997;28;20666;-79
2023/03/30 02:25:38;;;;;;;8.23;2.00;;;12.60;99.90;;;;;;5056074;28;20645;-79
2023/03/30 02:28:06;;;;;;;6.33;2.10;;;12.60;99.90;;;;;;5054785;28;20247;-79
2023/03/30 02:30:39;;;;;;;10.53;1.83;;;12.60;99.90;;;;;;5056528;28;20172;-79
2023/03/30 02:33:12;;;;;;;3.20;1.40;;;12.60;99.90;;;;;;5055112;28;20195;-79
2023/03/30 02:35:50;;;;;;;5.60;1.77;;;12.60;99.90;;;;;;5055854;28;20235;-78
2023/03/30 02:38:53;;;;;;;9.63;1.97;;;12.60;99.90;;;;;;5054693;28;20156;-79
2023/03/30 02:41:54;;;;;;;5.37;2.00;;;12.60;99.90;;;;;;5056267;28;20289;-79
2023/03/30 02:44:41;;;;;;;2.63;1.70;;;12.60;99.90;;;;;;5047372;28;20211;-79
2023/03/30 02:47:11;;;;;;;6.57;2.03;;;12.60;99.90;;;;;;5055294;28;20558;-78
2023/03/30 02:50:02;;;;;;;5.37;1.97;;;12.60;99.90;;;;;;5056375;28;20206;-79
2023/03/30 02:52:42;;;;;;;7.23;1.70;;;12.60;99.90;;;;;;5055440;28;20670;-79
2023/03/30 02:55:24;;;;;;;10.40;2.10;;;12.50;99.90;;;;;;5056537;28;20162;-79
2023/03/30 02:58:18;;;;;;;4.37;1.77;;;12.50;99.90;;;;;;5054695;28;20168;-79
2023/03/30 03:01:00;;;;;;;4.80;1.57;;;12.50;99.90;;;;;;5056249;28;20160;-79
2023/03/30 03:03:35;;;;;;;4.03;1.50;;;12.50;99.90;;;;;;5054811;28;20188;-79
2023/03/30 03:06:02;;;;;;;5.67;1.53;;;12.50;99.90;;;;;;5055916;28;20160;-78
2023/03/30 03:08:32;;;;;;;3.60;1.70;;;12.40;99.90;;;;;;5054940;28;20184;-79
2023/03/30 03:10:58;;;;;;;6.57;1.97;;;12.40;99.90;;;;;;5056261;28;20187;-79
2023/03/30 03:13:24;;;;;;;6.30;1.60;;;12.40;99.90;;;;;;5055632;28;20210;-79
2023/03/30 03:15:51;;;;;;;5.87;1.80;;;12.40;99.90;;;;;;5055222;28;20207;-78
2023/03/30 03:18:17;;;;;;;7.57;1.57;;;12.40;99.90;;;;;;5054868;28;20665;-78
2023/03/30 03:20:43;;;;;;;6.37;2.07;;;12.40;99.90;;;;;;5056018;28;20191;-79
2023/03/30 03:23:08;;;;;;;3.50;1.47;;;12.40;99.90;;;;;;5055453;28;20191;-79
2023/03/30 03:25:35;;;;;;;5.13;1.60;;;12.40;99.90;;;;;;5056875;28;20601;-78
2023/03/30 03:28:00;;;;;;;4.43;1.60;;;12.50;99.90;;;;;;5056559;28;20234;-79
2023/03/30 03:30:26;;;;;;;4.47;1.40;;;12.50;99.90;;;;;;5055822;28;20180;-79
2023/03/30 03:32:51;;;;;;;3.87;1.63;;;12.50;99.90;;;;;;5055449;28;20234;-79
2023/03/30 03:35:17;;;;;;;4.50;1.50;;;12.50;99.90;;;;;;5056336;28;20542;-79
2023/03/30 03:37:42;;;;;;;5.80;1.60;;;12.50;99.90;;;;;;5055973;28;20180;-78
2023/03/30 03:40:11;;;;;;;2.57;1.60;;;12.50;99.90;;;;;;5054490;28;20634;-78
2023/03/30 03:42:37;;;;;;;3.90;1.43;;;12.50;99.90;;;;;;5056346;28;20203;-79
2023/03/30 03:45:03;;;;;;;6.60;1.73;;;12.50;99.90;;;;;;5055987;28;20575;-79
2023/03/30 03:47:31;;;;;;;2.67;1.50;;;12.50;99.90;;;;;;5055032;28;20205;-79
2023/03/30 03:49:56;;;;;;;4.07;1.43;;;12.50;99.90;;;;;;5056679;28;20178;-78
2023/03/30 03:52:22;;;;;;;6.57;1.67;;;12.50;99.90;;;;;;5055435;28;20639;-79
2023/03/30 03:54:47;;;;;;;4.63;1.40;;;12.50;99.90;;;;;;5057744;28;20194;-79
2023/03/30 03:57:13;;;;;;;5.23;1.80;;;12.50;99.90;;;;;;5056865;28;20288;-79
2023/03/30 03:59:38;;;;;;;8.03;1.43;;;12.50;99.90;;;;;;5055501;28;20553;-79
2023/03/30 04:02:04;;;;;;;6.93;1.50;;;12.50;99.90;;;;;;5057380;28;20248;-79
2023/03/30 04:04:30;;;;;;;4.47;1.37;;;12.50;99.90;;;;;;5058710;28;20225;-79
2023/03/30 04:06:55;;;;;;;4.43;1.47;;;12.50;99.90;;;;;;5056489;28;20179;-78
2023/03/30 04:09:22;;;;;;;5.73;1.57;;;12.50;99.90;;;;;;5054233;28;20183;-79
2023/03/30 04:11:48;;;;;;;10.17;2.10;;;12.50;99.90;;;;;;5054088;28;20249;-78
2023/03/30 04:14:14;;;;;;;3.37;1.20;;;12.50;99.90;;;;;;5056936;28;20665;-79
2023/03/30 04:16:39;;;;;;;5.90;1.53;;;12.60;99.90;;;;;;5057916;28;20203;-79
2023/03/30 04:19:07;;;;;;;6.10;1.63;;;12.60;99.90;;;;;;5057331;28;20175;-79
2023/03/30 04:21:33;;;;;;;13.13;1.90;;;12.60;99.90;;;;;;5059163;28;20604;-79
2023/03/30 04:23:59;;;;;;;5.90;1.50;;;12.60;99.90;;;;;;5059195;28;20234;-79
2023/03/30 04:26:27;;;;;;;5.97;1.80;;;12.60;99.90;;;;;;5057437;28;20236;-79
2023/03/30 04:28:53;;;;;;;5.77;1.73;;;12.60;99.90;;;;;;5057346;28;20194;-78
2023/03/30 04:31:18;;;;;;;4.13;1.23;;;12.60;99.90;;;;;;5058689;28;20172;-80
2023/03/30 04:33:49;;;;;;;5.63;2.13;;;12.60;99.90;;;;;;5059777;28;20164;-79
2023/03/30 04:36:16;;;;;;;3.50;1.50;;;12.60;99.90;;;;;;5062709;28;20183;-79
2023/03/30 04:38:56;;;;;;;3.60;1.60;;;12.60;99.90;;;;;;5063438;28;20254;-79
2023/03/30 04:41:25;;;;;;;4.10;1.80;;;12.60;99.90;;;;;;5062785;28;20152;-80
2023/03/30 04:43:50;;;;;;;5.17;1.77;;;12.60;99.90;;;;;;5059406;28;20542;-79
2023/03/30 04:46:16;;;;;;;9.00;1.70;;;12.60;99.90;;;;;;5058151;28;20167;-79
2023/03/30 04:48:42;;;;;;;7.53;2.37;;;12.60;99.90;;;;;;5057481;28;20172;-80
2023/03/30 04:51:07;;;;;;;5.33;1.80;;;12.60;99.90;;;;;;5057021;28;20179;-80
2023/03/30 04:53:33;;;;;;;8.00;1.70;;;12.60;99.90;;;;;;5059097;28;20672;-80
2023/03/30 04:55:58;;;;;;;5.87;2.17;;;12.60;99.90;;;;;;5060956;28;20203;-79
2023/03/30 04:58:24;;;;;;;4.60;1.47;;;12.60;99.90;;;;;;5060648;28;20674;-80
2023/03/30 05:00:50;;;;;;;5.43;1.67;;;12.60;99.90;;;;;;5061429;28;20163;-79
2023/03/30 05:03:16;;;;;;;4.37;1.47;;;12.70;99.90;;;;;;5060467;28;20183;-79
2023/03/30 05:05:41;;;;;;;3.40;1.60;;;12.70;99.90;;;;;;5060534;28;20742;-79
2023/03/30 05:08:07;;;;;;;3.77;1.43;;;12.80;99.90;;;;;;5058496;28;20179;-80
2023/03/30 05:10:33;;;;;;;4.97;1.87;;;12.80;99.90;;;;;;5058850;28;20536;-80
2023/03/30 05:12:58;;;;;;;3.57;1.30;;;12.80;99.90;;;;;;5060285;28;20273;-80
2023/03/30 05:15:24;;;;;;;7.20;1.60;;;12.80;99.90;;;;;;5059127;28;20256;-80
2023/03/30 05:17:49;;;;;;;5.07;2.07;;;12.90;99.90;;;;;;5061266;28;20267;-80
2023/03/30 05:20:15;;;;;;;5.00;1.60;;;12.90;99.90;;;;;;5059105;28;20211;-80
2023/03/30 05:22:41;;;;;;;10.23;1.90;;;13.00;99.90;;;;;;5058929;28;20439;-80
2023/03/30 05:25:07;;;;;;;5.97;1.50;;;13.10;99.90;;;;;;5059610;28;20649;-80
2023/03/30 05:27:32;;;;;;;6.27;1.50;;;13.10;99.90;;;;;;5061332;28;20278;-80
2023/03/30 05:29:58;;;;;;;6.37;2.13;;;13.20;99.90;;;;;;5059700;28;20175;-80
2023/03/30 05:32:24;;;;;;;4.37;1.40;;;13.20;99.90;;;;;;5059527;28;20203;-78
2023/03/30 05:34:49;;;;;;;2.47;1.30;;;13.30;99.90;;;;;;5060016;28;20266;-79
2023/03/30 05:37:15;;;;;;;2.37;1.23;;;13.30;99.90;;;;;;5060647;28;20752;-79
2023/03/30 05:39:40;;;;;;;3.50;1.30;;;13.40;99.90;;;;;;5059210;28;20175;-79
2023/03/30 05:42:06;;;;;;;7.30;1.60;;;13.50;99.90;;;;;;5058869;28;20223;-80
2023/03/30 05:44:32;;;;;;;4.57;1.43;;;13.60;99.90;;;;;;5060209;28;20191;-80
2023/03/30 05:46:58;;;;;;;4.03;1.53;;;13.60;99.90;;;;;;5062092;28;20186;-80
2023/03/30 05:49:23;;;;;;;3.97;1.40;;;13.60;99.90;;;;;;5059889;28;20186;-79
2023/03/30 05:51:49;;;;;;;4.80;1.57;;;13.60;99.90;;;;;;5061273;28;20207;-79
2023/03/30 05:54:15;;;;;;;5.00;1.50;;;13.70;99.90;;;;;;5062730;28;20655;-79
2023/03/30 05:56:41;;;;;;;3.07;0.97;;;13.60;99.90;;;;;;5063005;28;20257;-79
2023/03/30 05:59:08;;;;;;;2.23;1.30;;;13.80;99.90;;;;;;5060496;28;20171;-79
2023/03/30 06:01:34;;;;;;;6.37;1.40;;;13.70;99.90;;;;;;5061684;28;20183;-79
2023/03/30 06:04:00;;;;;;;2.87;1.80;;;13.70;99.90;;;;;;5062876;28;20175;-78
2023/03/30 06:06:26;;;;;;;3.80;1.40;;;13.70;99.90;;;;;;5061254;28;20195;-79
2023/03/30 06:08:52;;;;;;;6.07;0.90;;;13.70;99.90;;;;;;5062145;28;20179;-79
2023/03/30 06:11:18;;;;;;;3.70;1.67;;;13.70;99.90;;;;;;5060582;28;20194;-79
2023/03/30 06:13:43;;;;;;;4.30;1.40;;;13.70;99.90;;;;;;5061267;28;20608;-80
2023/03/30 06:16:09;;;;;;;5.10;1.63;;;13.70;99.90;;;;;;5062244;28;20210;-79
2023/03/30 06:18:35;;;;;;;1.93;0.87;;;13.70;99.90;;;;;;5063056;28;20167;-80
2023/03/30 06:21:01;;;;;;;2.97;1.17;;;13.70;99.90;;;;;;5062105;28;20757;-79
2023/03/30 06:23:27;;;;;;;4.23;1.33;;;13.70;99.90;;;;;;5061318;28;20187;-79
2023/03/30 06:25:54;;;;;;;4.57;1.50;;;13.70;99.90;;;;;;5062916;28;20190;-79
2023/03/30 06:28:20;;;;;;;8.53;2.40;;;13.60;99.90;;;;;;5063067;28;20168;-79
2023/03/30 06:30:47;;;;;;;5.07;1.30;;;13.50;99.90;;;;;;5063447;28;20200;-80
2023/03/30 06:33:17;;;;;;;3.63;1.33;;;13.50;99.90;;;;;;5061438;28;20223;-79
2023/03/30 06:35:47;;;;;;;5.20;1.30;;;13.50;99.90;;;;;;5063699;28;20214;-79
2023/03/30 06:38:13;;;;;;;6.03;1.57;;;13.40;99.90;;;;;;5062098;28;20218;-79
2023/03/30 06:40:39;;;;;;;1.40;0.90;;;13.50;99.90;;;;;;5063417;28;20164;-79
2023/03/30 06:43:06;;;;;;;3.90;1.30;;;13.50;99.90;;;;;;5063277;28;20194;-79
2023/03/30 06:45:31;;;;;;;3.53;1.23;;;13.50;99.90;;;;;;5061353;28;20266;-79
2023/03/30 06:47:57;;;;;;;4.03;1.47;;;13.50;99.90;;;;;;5063659;28;20183;-79
2023/03/30 06:50:22;;;;;;;4.30;1.40;;;13.60;99.90;;;;;;5064169;28;20179;-79
2023/03/30 06:52:48;;;;;;;2.07;1.43;;;13.60;99.90;;;;;;5062771;28;20203;-79
2023/03/30 06:55:13;;;;;;;2.20;1.23;;;13.60;99.90;;;;;;5063842;28;20201;-79
2023/03/30 06:57:39;;;;;;;6.67;1.77;;;13.70;99.90;;;;;;5061740;28;20215;-79
2023/03/30 07:00:12;;;;;;;3.50;1.37;;;13.70;99.90;;;;;;5062892;28;20175;-79
2023/03/30 07:02:38;;;;;;;7.00;1.90;;;13.80;99.90;;;;;;5063777;28;20199;-79
2023/03/30 07:05:05;;;;;;;5.07;1.27;;;13.80;99.90;;;;;;5063318;28;20251;-80
2023/03/30 07:07:31;;;;;;;6.13;1.63;;;13.90;99.90;;;;;;5061444;28;20203;-79
2023/03/30 07:09:56;;;;;;;2.93;1.53;;;14.00;99.90;;;;;;5063197;28;20182;-80
2023/03/30 07:12:22;;;;;;;3.60;1.40;;;14.10;99.90;;;;;;5061332;28;20203;-80
2023/03/30 07:14:47;;;;;;;4.83;1.20;;;14.10;99.90;;;;;;5062810;28;20548;-80
2023/03/30 07:17:13;;;;;;;5.27;1.30;;;14.30;99.90;;;;;;5059906;28;20207;-79
2023/03/30 07:19:38;;;;;;;4.77;1.47;;;14.30;99.90;;;;;;5062070;28;20163;-79
2023/03/30 07:22:04;;;;;;;4.80;1.60;;;14.30;99.90;;;;;;5060717;28;20720;-80
2023/03/30 07:24:30;;;;;;;2.63;1.20;;;14.40;99.90;;;;;;5061991;28;20179;-80
2023/03/30 07:26:56;;;;;;;2.60;1.43;;;14.40;99.90;;;;;;5061033;28;20175;-80
2023/03/30 07:29:21;;;;;;;2.83;1.30;;;14.40;99.90;;;;;;5060140;28;20243;-80
2023/03/30 07:31:47;;;;;;;6.97;1.43;;;14.40;99.90;;;;;;5061382;28;20273;-80
2023/03/30 07:34:15;;;;;;;6.67;1.30;;;14.40;99.90;;;;;;5065502;28;20207;-80
2023/03/30 07:36:40;;;;;;;2.40;1.23;;;14.40;99.90;;;;;;5061584;28;20211;-80
2023/03/30 07:39:07;;;;;;;4.00;1.30;;;14.30;99.90;;;;;;5060783;28;20262;-79
2023/03/30 07:41:32;;;;;;;5.30;1.57;;;14.30;99.90;;;;;;5057711;28;20277;-80
2023/03/30 07:43:58;;;;;;;2.93;1.10;;;14.30;99.90;;;;;;5057731;28;20654;-80
2023/03/30 07:46:23;;;;;;;5.03;1.50;;;14.30;99.90;;;;;;5057672;28;20176;-80
2023/03/30 07:48:49;;;;;;;5.47;1.70;;;14.20;99.90;;;;;;5057965;28;20299;-80
2023/03/30 07:51:15;;;;;;;4.43;1.90;;;14.10;99.90;;;;;;5059376;28;20179;-81
2023/03/30 07:53:41;;;;;;;4.63;1.10;;;14.10;99.90;;;;;;5059382;28;20203;-81
2023/03/30 07:56:06;;;;;;;6.77;1.53;;;14.00;99.90;;;;;;5058706;28;20211;-80
2023/03/30 07:58:32;;;;;;;4.73;1.33;;;14.00;99.90;;;;;;5059887;28;20175;-79
2023/03/30 08:01:00;;;;;;;4.00;1.13;;;13.90;99.90;;;;;;5060355;28;20176;-80
2023/03/30 08:03:26;;;;;;;5.00;1.20;;;13.90;99.90;;;;;;5059624;28;20238;-81
2023/03/30 08:05:58;;;;;;;5.87;1.60;;;13.90;99.90;;;;;;5058409;28;20527;-80
2023/03/30 08:08:24;;;;;;;3.57;1.20;;;14.00;99.90;;;;;;5060267;28;20167;-80
2023/03/30 08:10:49;;;;;;;2.87;1.37;;;13.90;99.90;;;;;;5059867;28;20203;-80
2023/03/30 08:13:15;;;;;;;1.90;0.83;;;14.00;99.90;;;;;;5058424;28;20289;-80
2023/03/30 08:15:41;;;;;;;8.33;1.50;;;14.00;99.90;;;;;;5060075;28;20682;-81
2023/03/30 08:18:06;;;;;;;5.10;1.37;;;14.00;99.90;;;;;;5060581;28;20182;-79
2023/03/30 08:20:35;;;;;;;4.07;1.10;;;14.00;99.90;;;;;;5058724;28;20270;-80
2023/03/30 08:23:01;;;;;;;7.27;1.50;;;14.10;99.90;;;;;;5058381;28;20234;-80
2023/03/30 08:25:27;;;;;;;4.53;1.07;;;14.10;99.90;;;;;;5060625;28;20175;-79
2023/03/30 08:27:53;;;;;;;5.27;1.50;;;14.20;99.90;;;;;;5061013;28;20176;-79
2023/03/30 08:30:18;;;;;;;7.30;1.80;;;14.10;99.90;;;;;;5059887;28;20172;-80
2023/03/30 08:32:44;;;;;;;7.67;1.73;;;14.20;99.90;;;;;;5059448;28;20195;-80
2023/03/30 08:35:12;;;;;;;5.87;1.90;;;14.20;99.90;;;;;;5059719;28;20603;-81
2023/03/30 08:37:38;;;;;;;6.20;1.53;;;14.20;99.90;;;;;;5060629;28;20275;-80
2023/03/30 08:40:07;;;;;;;4.37;1.43;;;14.30;99.90;;;;;;5059432;28;20194;-79
2023/03/30 08:42:58;;;;;;;6.17;1.57;;;14.30;99.90;;;;;;5059039;28;20631;-81
2023/03/30 08:45:23;;;;;;;6.27;1.40;;;14.20;99.90;;;;;;5060124;28;20582;-81
2023/03/30 08:47:51;;;;;;;5.43;1.50;;;14.20;99.90;;;;;;5058946;28;20210;-81
2023/03/30 08:50:30;;;;;;;4.20;1.30;;;14.30;99.90;;;;;;5061126;28;20250;-82
2023/03/30 08:52:56;;;;;;;5.10;1.40;;;14.30;99.90;;;;;;5059661;28;20223;-80
2023/03/30 08:55:38;;;;;;;6.90;1.53;;;14.40;99.90;;;;;;5061960;28;20203;-81
2023/03/30 08:58:18;;;;;;;3.70;1.33;;;14.40;99.90;;;;;;5060563;28;20148;-82
2023/03/30 09:01:02;;;;;;;8.53;1.80;;;14.40;99.90;;;;;;5059065;28;20164;-81
2023/03/30 09:03:35;;;;;;;4.97;1.50;;;14.50;99.90;;;;;;5060526;28;20555;-81
2023/03/30 09:06:24;;;;;;;6.93;1.73;;;14.50;99.90;;;;;;5060529;28;20183;-81
2023/03/30 09:08:51;;;;;;;4.80;1.87;;;14.50;99.90;;;;;;5057095;28;20218;-81
2023/03/30 09:11:30;;;;;;;4.47;1.33;;;14.70;99.90;;;;;;5059156;28;20249;-81
2023/03/30 09:14:00;;;;;;;6.70;1.97;;;14.60;99.90;;;;;;5057333;28;20194;-81
2023/03/30 09:16:45;;;;;;;5.63;1.60;;;14.60;99.90;;;;;;5057201;28;20701;-81
2023/03/30 09:19:17;;;;;;;3.73;1.23;;;14.60;99.90;;;;;;5058482;28;20626;-81
2023/03/30 09:21:44;;;;;;;9.80;1.67;;;14.60;99.90;;;;;;5061120;28;20195;-81
2023/03/30 09:24:21;;;;;;;5.13;1.60;;;14.60;99.90;;;;;;5058189;28;20293;-82
2023/03/30 09:27:11;;;;;;;6.63;1.60;;;14.60;99.90;;;;;;5060509;28;20571;-82
2023/03/30 09:29:47;;;;;;;8.07;1.73;;;14.50;99.90;;;;;;5055319;28;20197;-81
2023/03/30 09:32:31;;;;;;;8.70;2.07;;;14.50;99.90;;;;;;5057858;28;20199;-81
2023/03/30 09:35:17;;;;;;;6.57;1.60;;;14.50;99.90;;;;;;5059922;28;20186;-82
2023/03/30 09:37:43;;;;;;;6.33;1.80;;;14.50;99.90;;;;;;5058571;28;20191;-80
2023/03/30 09:40:46;;;;;;;7.77;1.70;;;14.50;99.90;;;;;;5060010;28;20267;-81
2023/03/30 09:43:39;;;;;;;8.80;1.57;;;14.60;99.90;;;;;;5057568;28;20202;-81
2023/03/30 09:46:06;;;;;;;6.13;1.37;;;14.60;99.90;;;;;;5058496;28;20167;-81
2023/03/30 09:48:44;;;;;;;5.63;1.50;;;14.60;99.90;;;;;;5055974;28;20187;-82
2023/03/30 09:51:22;;;;;;;3.53;1.30;;;14.60;99.90;;;;;;5057038;28;20179;-81
2023/03/30 09:53:50;;;;;;;9.17;1.90;;;14.60;99.90;;;;;;5054922;28;20175;-82
2023/03/30 09:56:20;;;;;;;5.33;1.90;;;14.50;99.90;;;;;;5056477;28;20200;-83
2023/03/30 09:58:46;;;;;;;6.27;1.90;;;14.30;99.90;;;;;;5054554;28;20616;-81
2023/03/30 10:01:18;;;;;;;8.57;2.00;;;14.30;99.90;;;;;;5054762;28;20214;-83
2023/03/30 10:04:04;;;;;;;3.97;1.50;;;14.20;99.90;;;;;;5056855;28;20147;-82
2023/03/30 10:06:32;;;;;;;7.43;1.90;;;14.10;99.90;;;;;;5056479;28;20650;-82
2023/03/30 10:08:58;;;;;;;7.50;1.53;;;14.10;99.90;;;;;;5056309;28;20196;-82
2023/03/30 10:11:42;;;;;;;8.17;1.47;;;14.10;99.90;;;;;;5055254;28;20202;-82
2023/03/30 10:14:31;;;;;;;8.37;1.67;;;14.00;99.90;;;;;;5056642;28;20247;-82
2023/03/30 10:16:57;;;;;;;8.40;1.97;;;14.00;99.90;;;;;;5055485;28;20298;-82
2023/03/30 10:19:24;;;;;;;6.80;1.87;;;14.00;99.90;;;;;;5055057;28;20561;-83
2023/03/30 10:21:54;;;;;;;10.60;1.83;;;13.90;99.90;;;;;;5054543;28;20626;-83
2023/03/30 10:24:26;;;;;;;4.97;1.10;;;14.00;99.90;;;;;;5055014;28;20325;-81
2023/03/30 10:26:58;;;;;;;7.77;1.70;;;14.00;99.90;;;;;;5056273;28;20205;-81
2023/03/30 10:29:27;;;;;;;10.53;2.03;;;13.90;99.90;;;;;;5055021;28;20621;-83
2023/03/30 10:32:07;;;;;;;3.97;1.40;;;14.10;99.90;;;;;;5054616;28;20207;-83
2023/03/30 10:34:38;;;;;;;8.10;2.47;;;14.00;99.90;;;;;;5056282;28;20173;-82
2023/03/30 10:37:09;;;;;;;7.33;1.50;;;14.00;99.90;;;;;;5055922;28;20210;-82
2023/03/30 10:39:38;;;;;;;4.60;1.60;;;14.20;99.90;;;;;;5055740;28;20243;-83
2023/03/30 10:42:06;;;;;;;11.03;2.37;;;14.10;99.90;;;;;;5055451;28;20203;-82
2023/03/30 10:44:45;;;;;;;6.87;1.50;;;14.20;99.90;;;;;;5055456;28;20564;-82
2023/03/30 10:47:26;;;;;;;8.30;1.87;;;14.20;99.90;;;;;;5056187;28;20160;-82
2023/03/30 10:50:09;;;;;;;8.43;1.97;;;14.30;99.90;;;;;;5054516;28;20177;-83
2023/03/30 10:53:22;;;;;;;7.70;1.70;;;14.40;99.90;;;;;;5055663;28;20682;-82
2023/03/30 10:56:10;;;;;;;5.23;1.73;;;14.50;99.90;;;;;;5055553;28;20187;-82
2023/03/30 10:59:18;;;;;;;5.67;1.63;;;14.70;99.90;;;;;;5054006;28;20168;-82
2023/03/30 11:02:29;;;;;;;6.50;2.10;;;14.70;99.90;;;;;;5053128;28;20199;-83
2023/03/30 11:05:03;;;;;;;8.00;2.03;;;14.90;99.90;;;;;;5044686;28;20282;-81
2023/03/30 11:08:01;;;;;;;6.20;1.70;;;15.00;99.90;;;;;;5055776;28;20624;-83
2023/03/30 11:10:39;;;;;;;9.67;2.17;;;15.00;99.90;;;;;;5055305;28;20213;-82
2023/03/30 11:13:16;;;;;;;5.50;1.70;;;15.00;99.90;;;;;;5053799;28;20213;-84
2023/03/30 11:15:48;;;;;;;6.43;2.03;;;15.10;99.90;;;;;;5055175;28;20184;-81
2023/03/30 11:18:29;;;;;;;9.17;2.10;;;15.00;99.90;;;;;;5053947;28;20167;-82
2023/03/30 11:20:57;;;;;;;6.23;1.77;;;15.00;99.90;;;;;;5054451;28;20208;-82
2023/03/30 11:23:52;;;;;;;6.23;1.67;;;15.00;99.90;;;;;;5054174;28;20290;-78
2023/03/30 11:26:36;;;;;;;7.30;2.00;;;15.00;99.90;;;;;;5059647;28;20591;-81
2023/03/30 11:29:40;;;;;;;5.47;1.70;;;15.20;99.90;;;;;;5057425;28;20247;-77
2023/03/30 11:32:28;;;;;;;13.27;2.40;;;15.30;99.90;;;;;;5056802;28;20194;-78
2023/03/30 11:35:08;;;;;;;6.90;2.03;;;15.50;99.90;;;;;;5055662;28;20175;-78
2023/03/30 11:37:53;;;;;;;8.60;2.10;;;15.60;99.90;;;;;;5055159;28;20199;-77
2023/03/30 11:40:28;;;;;;;5.27;1.90;;;15.50;99.90;;;;;;5056419;28;20624;-78
2023/03/30 11:42:54;;;;;;;6.43;2.20;;;15.60;99.90;;;;;;5056612;28;20326;-78
2023/03/30 11:45:49;;;;;;;7.40;1.83;;;15.60;99.90;;;;;;5056526;28;20651;-78
2023/03/30 11:48:23;;;;;;;9.03;2.13;;;15.60;99.90;;;;;;5056712;28;20317;-78
2023/03/30 11:51:13;;;;;;;5.63;1.50;;;15.70;99.90;;;;;;5056840;28;20160;-78
2023/03/30 11:53:53;;;;;;;7.00;1.73;;;15.80;99.90;;;;;;5055202;28;20174;-77
2023/03/30 11:56:35;;;;;;;7.20;2.00;;;15.90;99.90;;;;;;5056982;28;20686;-78
2023/03/30 11:59:08;;;;;;;4.73;1.53;;;16.00;99.90;;;;;;5056466;28;20239;-78
2023/03/30 12:02:00;;;;;;;5.03;1.33;;;15.90;99.90;;;;;;5054970;28;20633;-77
2023/03/30 12:04:37;;;;;;;10.93;2.43;;;15.80;99.90;;;;;;5056578;28;20178;-77
2023/03/30 12:07:07;;;;;;;7.93;1.40;;;15.80;99.90;;;;;;5056555;28;20181;-77
2023/03/30 12:09:34;;;;;;;2.83;1.33;;;15.70;99.90;;;;;;5056072;28;20168;-78
2023/03/30 12:12:17;;;;;;;4.33;1.40;;;15.50;99.90;;;;;;5055530;28;20204;-78
2023/03/30 12:15:25;;;;;;;6.50;1.40;;;15.30;99.90;;;;;;5055690;28;20194;-78
2023/03/30 12:18:13;;;;;;;5.93;1.77;;;15.10;99.90;;;;;;5054654;28;20175;-77
2023/03/30 12:20:52;;;;;;;5.27;1.60;;;14.90;99.90;;;;;;5054164;28;20248;-77
2023/03/30 12:23:48;;;;;;;4.47;1.43;;;14.60;99.90;;;;;;5054169;28;20223;-79
2023/03/30 12:26:26;;;;;;;6.67;1.70;;;14.40;99.90;;;;;;5054950;28;20202;-78
2023/03/30 12:29:05;;;;;;;8.00;2.30;;;14.20;99.90;;;;;;5055990;28;20175;-77
2023/03/30 12:31:48;;;;;;;4.50;1.70;;;13.90;99.90;;;;;;5054984;28;20200;-78
2023/03/30 12:34:14;;;;;;;11.50;1.63;;;13.80;99.90;;;;;;5055644;28;20172;-78
2023/03/30 12:36:45;;;;;;;8.30;1.97;;;13.70;99.90;;;;;;5055602;28;20203;-78
2023/03/30 12:39:25;;;;;;;7.37;1.30;;;13.50;99.90;;;;;;5054790;28;20170;-77
2023/03/30 12:42:04;;;;;;;3.60;1.10;;;13.50;99.90;;;;;;5056647;28;20241;-78
2023/03/30 12:45:04;;;;;;;6.67;2.13;;;13.30;99.90;;;;;;5056120;28;20152;-78
2023/03/30 12:47:45;;;;;;;4.60;1.40;;;13.10;99.90;;;;;;5047686;28;20521;-77
2023/03/30 12:50:36;;;;;;;4.23;1.23;;;13.00;99.90;;;;;;5055743;28;20505;-78
2023/03/30 12:53:44;;;;;;;5.07;1.50;;;12.90;99.90;;;;;;5055602;28;20186;-78
2023/03/30 12:56:30;;;;;;;7.07;1.53;;;12.80;99.90;;;;;;5055713;28;20184;-78
2023/03/30 12:59:23;;;;;;;4.57;1.27;;;12.80;99.90;;;;;;5054318;28;20167;-78
2023/03/30 13:02:15;;;;;;;4.40;1.43;;;12.80;99.90;;;;;;5055690;28;20187;-78
2023/03/30 13:04:45;;;;;;;5.80;2.00;;;12.80;99.90;;;;;;5054771;28;20536;-78
2023/03/30 13:07:22;;;;;;;7.97;1.33;;;12.80;99.90;;;;;;5062568;28;20176;-79
2023/03/30 13:10:02;;;;;;;5.30;1.40;;;12.90;99.90;;;;;;5068095;28;20627;-79
2023/03/30 13:12:38;;;;;;;6.33;1.63;;;13.10;99.90;;;;;;5055658;28;20613;-79
2023/03/30 13:15:15;;;;;;;5.37;2.37;;;13.20;99.90;;;;;;5057174;28;20210;-78